createdAt,value
2022-12-13T00:01:32.771Z,75.52
2022-12-13T00:04:03.894Z,75.92
2022-12-13T00:06:34.877Z,75.73
2022-12-13T00:09:02.067Z,76.18
2022-12-13T00:11:28.635Z,76.76
2022-12-13T00:13:55.722Z,76.81
2022-12-13T00:16:23.988Z,76.60
2022-12-13T00:18:55.521Z,76.66
2022-12-13T00:21:25.063Z,76.78
2022-12-13T00:23:51.559Z,75.60
2022-12-13T00:26:21.184Z,75.07
2022-12-13T00:28:49.160Z,75.54
2022-12-13T00:34:05.004Z,75.89
2022-12-13T00:36:31.717Z,75.96
2022-12-13T00:39:00.951Z,76.26
2022-12-13T00:41:33.780Z,75.93
2022-12-13T00:44:01.649Z,75.99
2022-12-13T00:46:29.234Z,76.70
2022-12-13T00:48:58.664Z,76.27
2022-12-13T00:51:26.550Z,76.18
2022-12-13T00:53:53.274Z,77.03
2022-12-13T00:56:23.432Z,76.75
2022-12-13T00:58:52.306Z,76.86
2022-12-13T01:01:24.777Z,76.92
2022-12-13T01:03:51.680Z,76.92
2022-12-13T01:06:21.521Z,76.42
2022-12-13T01:08:48.504Z,76.34
2022-12-13T01:11:16.192Z,77.00
2022-12-13T01:13:45.616Z,76.93
2022-12-13T01:16:13.265Z,76.85
2022-12-13T01:18:41.112Z,76.59
2022-12-13T01:21:12.171Z,76.60
2022-12-13T01:23:39.214Z,75.89
2022-12-13T01:26:08.050Z,75.94
2022-12-13T01:28:34.657Z,76.04
2022-12-13T01:31:04.205Z,75.59
2022-12-13T01:33:31.662Z,75.95
2022-12-13T01:36:06.271Z,75.43
2022-12-13T01:38:43.516Z,75.95
2022-12-13T01:41:17.402Z,75.67
2022-12-13T01:43:45.924Z,75.80
2022-12-13T01:46:13.645Z,75.85
2022-12-13T01:49:19.344Z,75.63
2022-12-13T01:51:56.149Z,75.89
2022-12-13T01:54:34.538Z,75.60
2022-12-13T01:57:05.207Z,75.58
2022-12-13T01:59:33.808Z,75.61
2022-12-13T02:02:00.968Z,75.33
2022-12-13T02:04:44.185Z,75.67
2022-12-13T02:07:14.190Z,75.76
2022-12-13T02:09:56.623Z,75.59
2022-12-13T02:12:29.475Z,75.83
2022-12-13T02:15:00.582Z,76.06
2022-12-13T02:17:32.643Z,75.27
2022-12-13T02:20:05.144Z,75.09
2022-12-13T02:23:04.660Z,74.84
2022-12-13T02:26:05.193Z,75.64
2022-12-13T02:28:58.286Z,75.30
2022-12-13T02:31:32.426Z,75.98
2022-12-13T02:34:09.241Z,75.66
2022-12-13T02:36:49.635Z,75.46
2022-12-13T02:39:30.109Z,75.66
2022-12-13T02:42:06.935Z,75.88
2022-12-13T02:44:36.237Z,75.29
2022-12-13T02:47:12.794Z,76.50
2022-12-13T02:49:52.357Z,75.57
2022-12-13T02:52:22.926Z,75.71
2022-12-13T02:54:49.577Z,75.81
2022-12-13T02:57:35.822Z,75.33
2022-12-13T03:00:07.249Z,75.77
2022-12-13T03:02:49.283Z,75.32
2022-12-13T03:05:46.307Z,75.21
2022-12-13T03:08:24.063Z,75.42
2022-12-13T03:10:59.298Z,75.25
2022-12-13T03:13:47.892Z,75.88
2022-12-13T03:16:36.352Z,75.90
2022-12-13T03:19:06.031Z,75.63
2022-12-13T03:21:49.551Z,75.88
2022-12-13T03:24:21.241Z,75.90
2022-12-13T03:26:51.929Z,76.02
2022-12-13T03:29:24.769Z,75.05
2022-12-13T03:31:53.406Z,75.10
2022-12-13T03:34:23.053Z,75.93
2022-12-13T03:36:52.168Z,76.21
2022-12-13T03:39:19.807Z,75.46
2022-12-13T03:41:48.470Z,75.66
2022-12-13T03:44:15.324Z,76.09
2022-12-13T03:46:41.808Z,75.45
2022-12-13T03:49:10.438Z,74.74
2022-12-13T03:51:40.049Z,75.73
2022-12-13T03:54:06.460Z,75.74
2022-12-13T03:56:35.885Z,75.59
2022-12-13T03:59:02.452Z,75.50
2022-12-13T04:01:29.011Z,75.39
2022-12-13T04:03:58.541Z,75.19
2022-12-13T04:06:29.871Z,74.80
2022-12-13T04:08:59.260Z,74.92
2022-12-13T04:11:47.519Z,74.97
2022-12-13T04:14:22.523Z,75.27
2022-12-13T04:16:49.888Z,76.02
2022-12-13T04:19:16.424Z,76.01
2022-12-13T04:21:50.957Z,75.97
2022-12-13T04:24:17.685Z,76.18
2022-12-13T04:26:44.110Z,76.16
2022-12-13T04:29:10.722Z,76.25
2022-12-13T04:31:37.156Z,76.37
2022-12-13T04:34:03.576Z,76.68
2022-12-13T04:36:31.542Z,76.49
2022-12-13T04:38:58.820Z,76.36
2022-12-13T04:41:27.619Z,77.15
2022-12-13T04:44:01.015Z,76.44
2022-12-13T04:46:27.376Z,77.19
2022-12-13T04:48:53.836Z,76.97
2022-12-13T04:51:20.255Z,77.47
2022-12-13T04:53:46.716Z,77.21
2022-12-13T04:56:13.286Z,77.65
2022-12-13T04:58:39.946Z,77.80
2022-12-13T05:01:11.179Z,78.11
2022-12-13T05:03:38.514Z,78.15
2022-12-13T05:06:26.222Z,78.10
2022-12-13T05:08:53.018Z,77.67
2022-12-13T05:11:23.125Z,77.80
2022-12-13T05:13:49.854Z,78.29
2022-12-13T05:16:16.311Z,77.35
2022-12-13T05:18:48.404Z,77.81
2022-12-13T05:21:14.749Z,78.06
2022-12-13T05:23:41.288Z,78.16
2022-12-13T05:26:07.780Z,78.18
2022-12-13T05:28:34.579Z,77.74
2022-12-13T05:31:23.059Z,78.22
2022-12-13T05:33:53.982Z,78.25
2022-12-13T05:36:22.502Z,77.86
2022-12-13T05:38:49.080Z,77.73
2022-12-13T05:41:17.635Z,77.70
2022-12-13T05:43:44.124Z,76.88
2022-12-13T05:46:16.679Z,77.16
2022-12-13T05:48:43.058Z,77.10
2022-12-13T05:51:11.931Z,76.95
2022-12-13T05:53:40.744Z,77.51
2022-12-13T05:56:08.472Z,77.40
2022-12-13T05:58:35.888Z,77.39
2022-12-13T06:01:11.173Z,77.30
2022-12-13T06:03:38.141Z,77.71
2022-12-13T06:06:06.418Z,77.91
2022-12-13T06:08:34.854Z,77.54
2022-12-13T06:11:11.148Z,77.62
2022-12-13T06:13:44.875Z,77.71
2022-12-13T06:16:22.445Z,77.94
2022-12-13T06:18:55.824Z,77.23
2022-12-13T06:21:26.145Z,76.93
2022-12-13T06:23:52.590Z,76.99
2022-12-13T06:26:22.001Z,77.19
2022-12-13T06:28:50.072Z,76.57
2022-12-13T06:31:16.555Z,77.40
2022-12-13T06:33:43.116Z,76.92
2022-12-13T06:36:10.514Z,76.82
2022-12-13T06:38:43.645Z,76.02
2022-12-13T06:41:16.688Z,75.36
2022-12-13T06:43:50.620Z,76.00
2022-12-13T06:46:17.105Z,75.92
2022-12-13T06:48:44.411Z,76.56
2022-12-13T06:51:11.495Z,76.32
2022-12-13T06:53:39.925Z,75.79
2022-12-13T06:56:12.534Z,75.96
2022-12-13T06:58:40.059Z,75.98
2022-12-13T07:01:14.965Z,75.85
2022-12-13T07:03:50.410Z,75.24
2022-12-13T07:06:22.015Z,75.50
2022-12-13T07:08:51.082Z,75.21
2022-12-13T07:11:20.524Z,75.59
2022-12-13T07:13:48.520Z,75.49
2022-12-13T07:16:15.364Z,75.28
2022-12-13T07:18:41.941Z,75.46
2022-12-13T07:21:10.550Z,74.89
2022-12-13T07:23:55.103Z,74.86
2022-12-13T07:26:22.477Z,75.25
2022-12-13T07:28:55.400Z,75.26
2022-12-13T07:31:24.201Z,75.35
2022-12-13T07:33:50.898Z,75.61
2022-12-13T07:36:19.930Z,75.68
2022-12-13T07:38:54.934Z,76.21
2022-12-13T07:41:23.395Z,76.05
2022-12-13T07:43:55.477Z,76.17
2022-12-13T07:46:32.825Z,76.31
2022-12-13T07:49:03.474Z,75.86
2022-12-13T07:51:30.028Z,75.72
2022-12-13T07:54:00.897Z,75.96
2022-12-13T07:56:33.716Z,75.92
2022-12-13T07:59:00.178Z,75.62
2022-12-13T08:01:26.607Z,75.26
2022-12-13T08:03:53.143Z,75.59
2022-12-13T08:06:21.774Z,75.55
2022-12-13T08:08:51.089Z,75.17
2022-12-13T08:11:17.915Z,75.43
2022-12-13T08:13:44.431Z,75.48
2022-12-13T08:16:27.448Z,74.74
2022-12-13T08:19:01.980Z,74.72
2022-12-13T08:24:28.974Z,75.41
2022-12-13T08:27:02.675Z,75.33
2022-12-13T08:29:34.478Z,75.88
2022-12-13T08:32:08.271Z,75.64
2022-12-13T08:34:35.024Z,76.17
2022-12-13T08:37:03.592Z,76.42
2022-12-13T08:39:36.832Z,76.12
2022-12-13T08:42:14.751Z,75.83
2022-12-13T08:44:42.431Z,75.33
2022-12-13T08:47:09.424Z,75.36
2022-12-13T08:49:35.818Z,75.42
2022-12-13T08:52:02.300Z,75.88
2022-12-13T08:54:31.559Z,76.99
2022-12-13T08:56:59.457Z,76.91
2022-12-13T08:59:26.615Z,76.99
2022-12-13T09:01:54.207Z,75.86
2022-12-13T09:04:32.101Z,74.43
2022-12-13T09:07:01.242Z,72.97
2022-12-13T09:09:29.426Z,71.01
2022-12-13T09:11:59.739Z,68.92
2022-12-13T09:14:33.949Z,66.40
2022-12-13T09:17:02.835Z,63.68
2022-12-13T09:19:37.191Z,61.13
2022-12-13T09:22:04.888Z,59.44
2022-12-13T09:24:36.102Z,57.51
2022-12-13T09:27:09.143Z,55.64
2022-12-13T09:29:36.692Z,54.16
2022-12-13T09:32:03.268Z,52.60
2022-12-13T09:34:29.768Z,52.14
2022-12-13T09:37:01.083Z,51.76
2022-12-13T09:39:28.871Z,51.60
2022-12-13T09:42:10.099Z,52.22
2022-12-13T09:44:49.606Z,52.22
2022-12-13T09:47:46.977Z,52.31
2022-12-13T09:50:25.151Z,52.77
2022-12-13T09:53:00.200Z,53.28
2022-12-13T09:55:34.024Z,53.77
2022-12-13T09:58:07.217Z,54.00
2022-12-13T10:00:36.111Z,54.84
2022-12-13T10:03:03.240Z,55.79
2022-12-13T10:05:40.158Z,56.32
2022-12-13T10:08:16.221Z,56.48
2022-12-13T10:10:43.729Z,56.39
2022-12-13T10:13:17.085Z,56.17
2022-12-13T10:15:58.861Z,55.83
2022-12-13T10:18:34.966Z,55.21
2022-12-13T10:21:10.470Z,55.31
2022-12-13T10:23:59.864Z,54.98
2022-12-13T10:26:23.978Z,55.05
2022-12-13T10:29:01.808Z,55.21
2022-12-13T10:31:49.953Z,55.29
2022-12-13T10:34:24.505Z,55.18
2022-12-13T10:36:51.766Z,54.77
2022-12-13T10:39:40.697Z,54.59
2022-12-13T10:42:23.568Z,55.46
2022-12-13T10:45:23.308Z,54.79
2022-12-13T10:47:50.443Z,54.33
2022-12-13T10:50:25.218Z,53.40
2022-12-13T10:52:51.942Z,52.98
2022-12-13T10:55:25.308Z,52.89
2022-12-13T10:57:54.126Z,52.66
2022-12-13T11:00:50.285Z,52.84
2022-12-13T11:03:36.268Z,52.90
2022-12-13T11:06:04.747Z,53.37
2022-12-13T11:08:31.538Z,53.19
2022-12-13T11:11:04.106Z,53.69
2022-12-13T11:13:38.574Z,54.19
2022-12-13T11:16:25.436Z,54.13
2022-12-13T11:18:57.776Z,54.40
2022-12-13T11:21:26.423Z,54.23
2022-12-13T11:23:56.308Z,54.11
2022-12-13T11:26:29.351Z,54.38
2022-12-13T11:29:14.197Z,54.07
2022-12-13T11:31:56.232Z,53.59
2022-12-13T11:34:27.036Z,53.35
2022-12-13T11:37:28.669Z,53.42
2022-12-13T11:40:05.302Z,53.56
2022-12-13T11:42:49.897Z,53.76
2022-12-13T11:45:22.907Z,53.37
2022-12-13T11:48:13.875Z,53.21
2022-12-13T11:50:47.321Z,53.31
2022-12-13T11:53:31.778Z,54.02
2022-12-13T11:56:10.222Z,53.99
2022-12-13T11:59:07.984Z,54.37
2022-12-13T12:01:40.931Z,54.02
2022-12-13T12:04:18.996Z,53.44
2022-12-13T12:06:54.493Z,53.02
2022-12-13T12:09:25.119Z,52.78
2022-12-13T12:12:00.092Z,51.92
2022-12-13T12:14:41.043Z,51.26
2022-12-13T12:17:13.317Z,50.39
2022-12-13T12:19:40.827Z,50.07
2022-12-13T12:22:16.359Z,49.26
2022-12-13T12:25:10.718Z,49.00
2022-12-13T12:27:51.375Z,48.56
2022-12-13T12:30:26.793Z,48.53
2022-12-13T12:33:39.127Z,49.23
2022-12-13T12:36:22.016Z,49.58
2022-12-13T12:39:17.324Z,49.61
2022-12-13T12:42:10.627Z,49.25
2022-12-13T12:44:48.884Z,49.38
2022-12-13T12:48:27.805Z,49.51
2022-12-13T12:50:45.735Z,50.15
2022-12-13T12:53:24.120Z,50.71
2022-12-13T12:55:57.095Z,51.63
2022-12-13T12:58:40.621Z,52.08
2022-12-13T13:01:27.669Z,52.94
2022-12-13T13:04:01.700Z,52.91
2022-12-13T13:06:37.611Z,53.05
2022-12-13T13:09:13.335Z,53.02
2022-12-13T13:11:43.651Z,53.10
2022-12-13T13:14:39.214Z,53.97
2022-12-13T13:17:17.918Z,54.64
2022-12-13T13:19:49.241Z,55.19
2022-12-13T13:22:43.305Z,56.15
2022-12-13T13:25:24.494Z,57.18
2022-12-13T13:27:51.301Z,57.51
2022-12-13T13:30:20.808Z,58.27
2022-12-13T13:32:49.022Z,58.21
2022-12-13T13:35:31.208Z,58.87
2022-12-13T13:38:18.203Z,59.25
2022-12-13T13:40:44.832Z,59.84
2022-12-13T13:43:11.176Z,60.34
2022-12-13T13:45:49.914Z,60.58
2022-12-13T13:48:24.336Z,60.93
2022-12-13T13:51:22.789Z,61.47
2022-12-13T13:54:34.071Z,61.56
2022-12-13T13:57:12.809Z,61.69
2022-12-13T14:00:02.339Z,61.95
2022-12-13T14:02:53.683Z,61.93
2022-12-13T14:06:08.308Z,61.92
2022-12-13T14:08:40.457Z,62.62
2022-12-13T14:11:50.452Z,62.60
2022-12-13T14:14:50.131Z,62.74
2022-12-13T14:17:41.491Z,63.15
2022-12-13T14:20:26.101Z,63.34
2022-12-13T14:23:28.005Z,63.38
2022-12-13T14:26:00.769Z,63.27
2022-12-13T14:28:42.075Z,63.85
2022-12-13T14:31:22.222Z,64.06
2022-12-13T14:33:51.895Z,64.14
2022-12-13T14:36:27.462Z,64.12
2022-12-13T14:39:05.816Z,65.16
2022-12-13T14:41:32.523Z,65.49
2022-12-13T14:44:29.508Z,65.78
2022-12-13T14:47:01.942Z,65.96
2022-12-13T14:49:34.090Z,65.78
2022-12-13T14:52:25.959Z,66.10
2022-12-13T14:55:00.565Z,67.46
2022-12-13T14:57:29.655Z,67.47
2022-12-13T14:59:58.859Z,67.39
2022-12-13T15:02:33.515Z,68.02
2022-12-13T15:05:02.165Z,68.23
2022-12-13T15:07:42.057Z,68.22
2022-12-13T15:10:42.084Z,68.45
2022-12-13T15:13:36.516Z,68.35
2022-12-13T15:16:11.036Z,68.70
2022-12-13T15:18:38.547Z,69.55
2022-12-13T15:21:20.772Z,70.46
2022-12-13T15:23:49.991Z,70.04
2022-12-13T15:26:28.777Z,69.80
2022-12-13T15:29:10.079Z,70.81
2022-12-13T15:31:43.168Z,70.02
2022-12-13T15:34:30.627Z,69.42
2022-12-13T15:37:06.195Z,70.17
2022-12-13T15:39:38.552Z,69.96
2022-12-13T15:42:05.277Z,69.62
2022-12-13T15:44:57.037Z,69.54
2022-12-13T15:47:28.600Z,69.61
2022-12-13T15:50:00.966Z,69.74
2022-12-13T15:52:33.693Z,69.38
2022-12-13T15:55:02.384Z,69.99
2022-12-13T15:57:31.794Z,69.82
2022-12-13T16:00:15.092Z,70.55
2022-12-13T16:03:17.920Z,69.88
2022-12-13T16:06:02.376Z,70.04
2022-12-13T16:08:35.835Z,69.51
2022-12-13T16:11:05.031Z,69.47
2022-12-13T16:13:34.204Z,69.26
2022-12-13T16:16:29.684Z,69.69
2022-12-13T16:18:58.987Z,69.57
2022-12-13T16:21:26.630Z,69.10
2022-12-13T16:23:53.399Z,69.22
2022-12-13T16:26:33.233Z,69.28
2022-12-13T16:29:00.675Z,68.90
2022-12-13T16:31:35.147Z,69.20
2022-12-13T16:34:03.134Z,68.98
2022-12-13T16:36:40.688Z,68.80
2022-12-13T16:39:10.791Z,68.82
2022-12-13T16:41:40.797Z,69.00
2022-12-13T16:44:10.699Z,68.81
2022-12-13T16:47:13.373Z,68.71
2022-12-13T16:49:28.876Z,68.62
2022-12-13T16:51:55.640Z,69.07
2022-12-13T16:54:25.715Z,68.82
2022-12-13T16:56:54.080Z,69.08
2022-12-13T16:59:23.016Z,68.34
2022-12-13T17:01:50.832Z,68.50
2022-12-13T17:04:21.724Z,68.61
2022-12-13T17:06:50.113Z,69.24
2022-12-13T17:09:17.452Z,68.86
2022-12-13T17:11:44.061Z,68.64
2022-12-13T17:14:10.884Z,69.31
2022-12-13T17:16:37.548Z,69.32
2022-12-13T17:19:04.316Z,68.57
2022-12-13T17:21:30.895Z,69.30
2022-12-13T17:23:59.491Z,68.93
2022-12-13T17:26:29.288Z,69.06
2022-12-13T17:28:55.832Z,69.22
2022-12-13T17:31:22.464Z,69.31
2022-12-13T17:33:49.036Z,70.09
2022-12-13T17:36:16.049Z,70.15
2022-12-13T17:38:48.415Z,69.76
2022-12-13T17:41:17.476Z,69.55
2022-12-13T17:43:44.696Z,70.03
2022-12-13T17:46:13.525Z,69.51
2022-12-13T17:48:47.696Z,70.06
2022-12-13T17:51:14.934Z,70.39
2022-12-13T17:53:45.237Z,70.39
2022-12-13T17:56:15.038Z,70.73
2022-12-13T17:58:42.654Z,70.72
2022-12-13T18:01:15.206Z,70.93
2022-12-13T18:03:41.781Z,71.24
2022-12-13T18:06:09.139Z,71.19
2022-12-13T18:08:37.331Z,71.32
2022-12-13T18:13:54.894Z,70.34
2022-12-13T18:16:23.391Z,70.14
2022-12-13T18:18:55.335Z,70.63
2022-12-13T18:21:25.221Z,70.61
2022-12-13T18:23:55.326Z,70.90
2022-12-13T18:26:25.144Z,70.70
2022-12-13T18:28:52.283Z,70.61
2022-12-13T18:31:22.205Z,70.86
2022-12-13T18:33:50.558Z,70.19
2022-12-13T18:36:18.270Z,70.73
2022-12-13T18:38:47.759Z,70.87
2022-12-13T18:41:17.800Z,71.02
2022-12-13T18:43:44.865Z,70.39
2022-12-13T18:46:13.333Z,71.06
2022-12-13T18:48:40.830Z,70.41
2022-12-13T18:51:08.825Z,70.59
2022-12-13T18:53:37.345Z,70.27
2022-12-13T18:56:07.248Z,70.26
2022-12-13T18:58:34.192Z,69.80
2022-12-13T19:01:00.896Z,70.10
2022-12-13T19:03:28.028Z,69.57
2022-12-13T19:05:59.234Z,69.97
2022-12-13T19:08:34.499Z,70.28
2022-12-13T19:11:02.403Z,70.03
2022-12-13T19:13:43.681Z,70.59
2022-12-13T19:16:12.498Z,70.13
2022-12-13T19:18:39.202Z,69.57
2022-12-13T19:21:08.480Z,70.18
2022-12-13T19:23:35.578Z,70.17
2022-12-13T19:26:06.318Z,69.55
2022-12-13T19:28:34.031Z,69.73
2022-12-13T19:31:04.904Z,69.55
2022-12-13T19:33:32.504Z,69.20
2022-12-13T19:35:59.106Z,69.08
2022-12-13T19:38:26.240Z,69.69
2022-12-13T19:40:53.023Z,69.67
2022-12-13T19:43:21.613Z,69.31
2022-12-13T19:45:48.530Z,69.09
2022-12-13T19:48:15.395Z,69.26
2022-12-13T19:50:45.102Z,69.18
2022-12-13T19:53:12.134Z,69.70
2022-12-13T19:55:48.363Z,69.04
2022-12-13T19:58:15.162Z,69.21
2022-12-13T20:00:42.398Z,69.54
2022-12-13T20:03:09.765Z,69.15
2022-12-13T20:05:36.313Z,68.85
2022-12-13T20:08:03.243Z,69.32
2022-12-13T20:10:30.043Z,70.04
2022-12-13T20:12:56.564Z,70.06
2022-12-13T20:15:23.368Z,69.91
2022-12-13T20:17:49.834Z,69.48
2022-12-13T20:20:16.427Z,69.79
2022-12-13T20:22:42.896Z,69.10
2022-12-13T20:25:17.746Z,69.16
2022-12-13T20:27:47.275Z,68.98
2022-12-13T20:30:23.853Z,69.37
2022-12-13T20:32:52.221Z,69.85
2022-12-13T20:35:19.791Z,70.34
2022-12-13T20:37:49.915Z,70.25
2022-12-13T20:40:30.063Z,69.39
2022-12-13T20:43:13.388Z,69.78
2022-12-13T20:45:39.867Z,69.82
2022-12-13T20:48:06.855Z,69.44
2022-12-13T20:50:37.886Z,69.95
2022-12-13T20:53:14.059Z,70.07
2022-12-13T20:55:41.039Z,70.35
2022-12-13T20:58:13.292Z,70.28
2022-12-13T21:00:40.393Z,70.13
2022-12-13T21:03:06.866Z,69.79
2022-12-13T21:05:37.302Z,70.21
2022-12-13T21:08:22.901Z,69.91
2022-12-13T21:11:05.206Z,70.74
2022-12-13T21:13:41.428Z,70.60
2022-12-13T21:16:08.175Z,70.30
2022-12-13T21:18:36.145Z,70.20
2022-12-13T21:21:05.998Z,70.06
2022-12-13T21:23:35.595Z,70.56
2022-12-13T21:26:14.619Z,70.60
2022-12-13T21:28:47.740Z,71.02
2022-12-13T21:31:14.612Z,70.95
2022-12-13T21:33:41.037Z,71.64
2022-12-13T21:36:27.981Z,71.89
2022-12-13T21:38:59.479Z,71.72
2022-12-13T21:41:29.121Z,71.72
2022-12-13T21:43:56.056Z,71.39
2022-12-13T21:46:35.740Z,71.83
2022-12-13T21:49:12.837Z,71.43
2022-12-13T21:51:47.589Z,71.39
2022-12-13T21:54:14.691Z,71.17
2022-12-13T21:56:59.534Z,71.13
2022-12-13T21:59:28.533Z,71.52
2022-12-13T22:02:28.050Z,70.94
2022-12-13T22:04:56.379Z,70.76
2022-12-13T22:07:31.214Z,71.57
2022-12-13T22:09:59.230Z,71.38
2022-12-13T22:12:26.755Z,71.33
2022-12-13T22:14:53.465Z,71.17
2022-12-13T22:17:24.970Z,70.86
2022-12-13T22:19:54.743Z,71.32
2022-12-13T22:22:23.649Z,71.24
2022-12-13T22:24:53.864Z,70.64
2022-12-13T22:27:25.944Z,71.35
2022-12-13T22:29:55.433Z,70.85
2022-12-13T22:32:22.593Z,71.35
2022-12-13T22:34:49.244Z,70.77
2022-12-13T22:37:15.895Z,70.23
2022-12-13T22:39:42.310Z,70.37
2022-12-13T22:42:10.898Z,70.26
2022-12-13T22:44:37.246Z,70.28
2022-12-13T22:47:06.720Z,70.65
2022-12-13T22:49:33.210Z,70.47
2022-12-13T22:51:59.717Z,70.09
2022-12-13T22:54:26.060Z,70.57
2022-12-13T22:56:52.544Z,70.58
2022-12-13T22:59:18.973Z,70.05
2022-12-13T23:01:47.272Z,70.58
2022-12-13T23:04:17.421Z,70.16
2022-12-13T23:06:44.377Z,69.13
2022-12-13T23:09:13.362Z,69.27
2022-12-13T23:11:58.648Z,69.64
2022-12-13T23:14:30.804Z,69.46
2022-12-13T23:16:57.370Z,69.50
2022-12-13T23:22:10.292Z,69.30
2022-12-13T23:24:36.773Z,69.47
2022-12-13T23:27:03.384Z,69.59
2022-12-13T23:29:29.801Z,69.16
2022-12-13T23:31:59.123Z,69.42
2022-12-13T23:34:25.562Z,69.58
2022-12-13T23:36:53.204Z,69.54
2022-12-13T23:39:19.598Z,69.24
2022-12-13T23:41:46.138Z,69.42
2022-12-13T23:44:14.849Z,69.53
2022-12-13T23:46:41.289Z,69.02
2022-12-13T23:49:08.564Z,68.84
2022-12-13T23:51:37.723Z,68.92
2022-12-13T23:54:06.036Z,68.90
2022-12-13T23:56:32.380Z,68.70
2022-12-13T23:58:58.829Z,68.56
